Terminal Aerodrome Forecast
Issued by NWS Portland, OR

Home | Current Version | Previous Version | Text Only | Print | Product List | Glossary On
Versions: 1 2 3 4 5 6 7 8 9 10 11 12 13 14 15 16 17 18 19 20 21 22 23 24 25 26 27 28 29 30 31
000
FTUS46 KPQR 241726
TAFPDX
TAF
KPDX 241726Z 2418/2518 20011G20KT P6SM -SHRA SCT025 BKN045 BKN060
     FM250200 22010KT P6SM -SHRA SCT025 BKN045
     FM250800 18003KT P6SM -SHRA SCT025 BKN045=

USA.gov is the U.S. government's official web portal to all federal, state and local government web resources and services.